createdAt,value
2017-03-22T00:00:50.887Z,965.33
2017-03-22T00:01:59.946Z,965.34
2017-03-22T00:03:08.655Z,965.27
2017-03-22T00:04:18.339Z,965.26
2017-03-22T00:05:27.715Z,965.21
2017-03-22T00:06:36.725Z,965.26
2017-03-22T00:07:45.487Z,965.26
2017-03-22T00:08:54.863Z,965.24
2017-03-22T00:10:04.242Z,965.22
2017-03-22T00:11:13.322Z,965.25
2017-03-22T00:12:22.392Z,965.25
2017-03-22T00:13:31.137Z,965.22
2017-03-22T00:14:40.165Z,965.19
2017-03-22T00:15:49.590Z,965.21
2017-03-22T00:16:58.660Z,965.14
2017-03-22T00:18:08.337Z,965.15
2017-03-22T00:19:17.054Z,965.12
2017-03-22T00:20:26.719Z,965.11
2017-03-22T00:21:35.423Z,965.11
2017-03-22T00:22:44.490Z,965.06
2017-03-22T00:23:54.781Z,965.09
2017-03-22T00:25:04.452Z,965.05
2017-03-22T00:26:14.123Z,965.02
2017-03-22T00:27:23.187Z,965
2017-03-22T00:28:32.862Z,965.02
2017-03-22T00:29:42.379Z,964.98
2017-03-22T00:30:51.758Z,965.03
2017-03-22T00:32:01.126Z,965
2017-03-22T00:33:10.800Z,965
2017-03-22T00:34:20.472Z,964.99
2017-03-22T00:35:30.143Z,964.99
2017-03-22T00:36:39.156Z,964.99
2017-03-22T00:37:48.219Z,965.02
2017-03-22T00:38:57.895Z,965.05
2017-03-22T00:40:07.566Z,965.05
2017-03-22T00:41:16.325Z,965.07
2017-03-22T00:42:25.391Z,965
2017-03-22T00:43:34.964Z,965.03
2017-03-22T00:44:44.340Z,965.01
2017-03-22T00:45:54.025Z,965.05
2017-03-22T00:47:03.400Z,965.02
2017-03-22T00:48:12.780Z,965.02
2017-03-22T00:49:22.167Z,964.94
2017-03-22T00:50:31.844Z,964.96
2017-03-22T00:51:40.609Z,964.98
2017-03-22T00:52:50.009Z,964.92
2017-03-22T00:53:59.991Z,964.96
2017-03-22T00:55:09.354Z,964.96
2017-03-22T00:56:18.062Z,964.98
2017-03-22T00:57:26.824Z,964.97
2017-03-22T00:58:36.501Z,964.95
2017-03-22T00:59:45.882Z,965
2017-03-22T01:00:55.247Z,964.99
2017-03-22T01:02:03.996Z,964.97
2017-03-22T01:03:13.604Z,964.97
2017-03-22T01:04:22.321Z,964.99
2017-03-22T01:05:31.699Z,964.97
2017-03-22T01:06:40.461Z,964.93
2017-03-22T01:07:49.215Z,964.97
2017-03-22T01:08:59.496Z,964.97
2017-03-22T01:10:08.557Z,964.98
2017-03-22T01:11:17.554Z,964.98
2017-03-22T01:12:27.123Z,964.99
2017-03-22T01:13:35.880Z,965
2017-03-22T01:14:45.565Z,964.98
2017-03-22T01:15:55.255Z,964.99
2017-03-22T01:17:04.520Z,964.98
2017-03-22T01:18:13.595Z,964.98
2017-03-22T01:19:23.571Z,965.02
2017-03-22T01:20:32.883Z,965.02
2017-03-22T01:21:41.943Z,965.02
2017-03-22T01:22:50.928Z,965.01
2017-03-22T01:24:00.294Z,965.06
2017-03-22T01:25:09.322Z,965.04
2017-03-22T01:26:18.092Z,965.05
2017-03-22T01:27:27.168Z,965.02
2017-03-22T01:28:37.135Z,965.05
2017-03-22T01:29:46.756Z,965.05
2017-03-22T01:30:56.134Z,965.07
2017-03-22T01:32:05.506Z,965.02
2017-03-22T01:33:14.879Z,965.02
2017-03-22T01:34:24.854Z,965.02
2017-03-22T01:35:34.168Z,965.05
2017-03-22T01:36:43.525Z,965.02
2017-03-22T01:37:52.530Z,965.02
2017-03-22T01:39:02.515Z,965.06
2017-03-22T01:40:12.494Z,965.05
2017-03-22T01:41:21.243Z,965.09
2017-03-22T01:42:30.252Z,965.09
2017-03-22T01:43:39.024Z,965.06
2017-03-22T01:44:48.696Z,965.04
2017-03-22T01:45:58.976Z,965.04
2017-03-22T01:47:08.059Z,965.03
2017-03-22T01:48:17.127Z,965.03
2017-03-22T01:49:27.414Z,965.03
2017-03-22T01:50:36.176Z,965.03
2017-03-22T01:51:45.544Z,965
2017-03-22T01:52:54.605Z,964.98
2017-03-22T01:54:04.293Z,965.03
2017-03-22T01:55:13.665Z,964.97
2017-03-22T01:56:22.425Z,965.02
2017-03-22T01:57:31.497Z,965
2017-03-22T01:58:41.176Z,965.01
2017-03-22T01:59:50.241Z,964.98
2017-03-22T02:00:59.796Z,965.01
2017-03-22T02:02:08.512Z,965
2017-03-22T02:03:17.583Z,964.99
2017-03-22T02:04:27.459Z,965.03
2017-03-22T02:05:36.842Z,965.01
2017-03-22T02:06:45.602Z,965.01
2017-03-22T02:07:54.679Z,965.05
2017-03-22T02:09:03.753Z,965
2017-03-22T02:10:13.125Z,965.02
2017-03-22T02:11:22.490Z,965.03
2017-03-22T02:12:31.234Z,965.02
2017-03-22T02:13:40.548Z,965
2017-03-22T02:14:49.605Z,965.01
2017-03-22T02:15:59.230Z,965.01
2017-03-22T02:17:07.980Z,965
2017-03-22T02:18:16.691Z,964.99
2017-03-22T02:19:26.081Z,965.01
2017-03-22T02:20:35.458Z,965
2017-03-22T02:21:44.528Z,965.04
2017-03-22T02:22:53.295Z,965.01
2017-03-22T02:24:03.268Z,965.01
2017-03-22T02:25:12.889Z,965.06
2017-03-22T02:26:21.638Z,965.01
2017-03-22T02:27:30.945Z,965
2017-03-22T02:28:40.623Z,965.06
2017-03-22T02:29:50.242Z,965
2017-03-22T02:30:59.606Z,965.01
2017-03-22T02:32:08.348Z,964.99
2017-03-22T02:33:17.119Z,964.94
2017-03-22T02:34:26.498Z,965.01
2017-03-22T02:35:35.669Z,964.98
2017-03-22T02:36:44.724Z,964.98
2017-03-22T02:37:53.730Z,964.97
2017-03-22T02:39:03.615Z,964.98
2017-03-22T02:40:12.961Z,965.02
2017-03-22T02:41:22.326Z,965
2017-03-22T02:42:31.083Z,965.02
2017-03-22T02:43:41.323Z,965.03
2017-03-22T02:44:50.398Z,965.05
2017-03-22T02:46:00.083Z,965.06
2017-03-22T02:47:08.851Z,965.02
2017-03-22T02:48:17.916Z,965.05
2017-03-22T02:49:28.209Z,965.04
2017-03-22T02:50:37.289Z,965.05
2017-03-22T02:51:46.664Z,965.03
2017-03-22T02:52:55.456Z,965.05
2017-03-22T02:54:04.846Z,965.03
2017-03-22T02:55:14.225Z,965.06
2017-03-22T02:56:23.278Z,965.07
2017-03-22T02:57:32.955Z,965.04
2017-03-22T02:58:42.547Z,965.08
2017-03-22T02:59:52.175Z,965.06
2017-03-22T03:01:01.858Z,965.05
2017-03-22T03:02:10.626Z,965.06
2017-03-22T03:03:20.003Z,965.02
2017-03-22T03:04:29.688Z,965.08
2017-03-22T03:05:38.448Z,965.09
2017-03-22T03:06:47.502Z,965.03
2017-03-22T03:07:56.257Z,965.08
2017-03-22T03:09:05.017Z,965.05
2017-03-22T03:10:14.894Z,965.04
2017-03-22T03:11:24.466Z,964.99
2017-03-22T03:12:33.842Z,965.03
2017-03-22T03:13:43.962Z,965.05
2017-03-22T03:14:54.179Z,965.05
2017-03-22T03:16:03.551Z,965.06
2017-03-22T03:17:12.608Z,965.08
2017-03-22T03:18:21.981Z,965.05
2017-03-22T03:19:31.358Z,965.08
2017-03-22T03:20:41.031Z,965.08
2017-03-22T03:21:50.095Z,965.1
2017-03-22T03:22:59.772Z,965.06
2017-03-22T03:24:08.849Z,965.06
2017-03-22T03:25:18.829Z,965.1
2017-03-22T03:26:27.578Z,965.05
2017-03-22T03:27:36.887Z,965.1
2017-03-22T03:28:46.572Z,965.13
2017-03-22T03:29:56.597Z,965.1
2017-03-22T03:31:05.912Z,965.1
2017-03-22T03:32:14.678Z,965.1
2017-03-22T03:33:24.041Z,965.09
2017-03-22T03:34:34.003Z,965.06
2017-03-22T03:35:43.382Z,965.08
2017-03-22T03:36:52.145Z,965.11
2017-03-22T03:38:01.762Z,965.11
2017-03-22T03:39:10.566Z,965.14
2017-03-22T03:40:19.333Z,965.13
2017-03-22T03:41:28.397Z,965.09
2017-03-22T03:42:37.166Z,965.11
2017-03-22T03:43:46.253Z,965.13
2017-03-22T03:44:55.943Z,965.14
2017-03-22T03:46:05.004Z,965.16
2017-03-22T03:47:13.767Z,965.16
2017-03-22T03:48:23.031Z,965.19
2017-03-22T03:49:32.716Z,965.21
2017-03-22T03:50:42.081Z,965.18
2017-03-22T03:51:51.151Z,965.21
2017-03-22T03:53:00.530Z,965.22
2017-03-22T03:54:10.203Z,965.24
2017-03-22T03:55:19.272Z,965.23
2017-03-22T03:56:28.648Z,965.25
2017-03-22T03:57:37.717Z,965.22
2017-03-22T03:58:48.006Z,965.22
2017-03-22T03:59:57.682Z,965.2
2017-03-22T04:01:06.737Z,965.23
2017-03-22T04:02:15.502Z,965.22
2017-03-22T04:03:24.846Z,965.23
2017-03-22T04:04:34.213Z,965.21
2017-03-22T04:05:44.132Z,965.21
2017-03-22T04:06:53.211Z,965.23
2017-03-22T04:08:02.278Z,965.21
2017-03-22T04:09:12.267Z,965.22
2017-03-22T04:10:21.022Z,965.17
2017-03-22T04:11:30.019Z,965.2
2017-03-22T04:12:39.372Z,965.2
2017-03-22T04:13:48.453Z,965.21
2017-03-22T04:14:58.426Z,965.17
2017-03-22T04:16:07.451Z,965.24
2017-03-22T04:17:16.164Z,965.22
2017-03-22T04:18:25.570Z,965.17
2017-03-22T04:19:34.951Z,965.16
2017-03-22T04:20:44.025Z,965.15
2017-03-22T04:21:52.784Z,965.14
2017-03-22T04:23:02.465Z,965.15
2017-03-22T04:24:12.156Z,965.16
2017-03-22T04:25:22.142Z,965.19
2017-03-22T04:26:31.227Z,965.17
2017-03-22T04:27:40.000Z,965.16
2017-03-22T04:28:49.640Z,965.14
2017-03-22T04:29:59.334Z,965.13
2017-03-22T04:31:08.050Z,965.13
2017-03-22T04:32:16.818Z,965.15
2017-03-22T04:33:25.893Z,965.13
2017-03-22T04:34:35.877Z,965.15
2017-03-22T04:35:44.886Z,965.15
2017-03-22T04:36:53.948Z,965.14
2017-03-22T04:38:03.627Z,965.14
2017-03-22T04:39:12.394Z,965.12
2017-03-22T04:40:22.082Z,965.08
2017-03-22T04:41:31.761Z,965.11
2017-03-22T04:42:40.819Z,965.03
2017-03-22T04:43:50.147Z,965.05
2017-03-22T04:44:59.871Z,965.07
2017-03-22T04:46:09.500Z,965.05
2017-03-22T04:47:19.178Z,965.02
2017-03-22T04:48:28.245Z,965.01
2017-03-22T04:49:37.620Z,965.03
2017-03-22T04:50:47.302Z,965.03
2017-03-22T04:51:56.666Z,965.02
2017-03-22T04:53:05.762Z,965.01
2017-03-22T04:54:15.447Z,965.05
2017-03-22T04:55:25.434Z,965.01
2017-03-22T04:56:34.233Z,965.02
2017-03-22T04:57:43.298Z,965.03
2017-03-22T04:58:52.979Z,965.03
2017-03-22T05:00:02.365Z,965.04
2017-03-22T05:01:11.628Z,965.05
2017-03-22T05:02:20.337Z,965.05
2017-03-22T05:03:29.406Z,965.1
2017-03-22T05:04:39.359Z,965.02
2017-03-22T05:05:48.116Z,965.05
2017-03-22T05:06:57.129Z,965.04
2017-03-22T05:08:05.889Z,965.05
2017-03-22T05:09:15.573Z,965.09
2017-03-22T05:10:25.543Z,965.05
2017-03-22T05:11:34.256Z,965.04
2017-03-22T05:12:43.003Z,965.03
2017-03-22T05:13:52.625Z,965.05
2017-03-22T05:15:02.043Z,965.01
2017-03-22T05:16:11.092Z,965
2017-03-22T05:17:20.010Z,965.02
2017-03-22T05:18:29.386Z,965
2017-03-22T05:19:39.063Z,964.97
2017-03-22T05:20:48.779Z,964.98
2017-03-22T05:21:57.781Z,964.99
2017-03-22T05:23:06.551Z,964.98
2017-03-22T05:24:16.742Z,965
2017-03-22T05:25:26.407Z,964.98
2017-03-22T05:26:35.724Z,964.97
2017-03-22T05:27:44.746Z,965
2017-03-22T05:28:54.738Z,964.97
2017-03-22T05:30:03.812Z,964.99
2017-03-22T05:31:12.775Z,964.98
2017-03-22T05:32:21.847Z,964.98
2017-03-22T05:33:30.588Z,965.02
2017-03-22T05:34:40.219Z,964.94
2017-03-22T05:35:50.194Z,964.96
2017-03-22T05:36:58.892Z,964.96
2017-03-22T05:38:08.203Z,964.93
2017-03-22T05:39:17.283Z,964.95
2017-03-22T05:40:27.281Z,964.95
2017-03-22T05:41:36.046Z,964.93
2017-03-22T05:42:45.117Z,964.9
2017-03-22T05:43:54.187Z,964.9
2017-03-22T05:45:03.267Z,964.93
2017-03-22T05:46:12.642Z,964.96
2017-03-22T05:47:21.410Z,964.89
2017-03-22T05:48:30.468Z,964.93
2017-03-22T05:49:40.089Z,964.9
2017-03-22T05:50:48.852Z,964.91
2017-03-22T05:51:57.551Z,964.9
2017-03-22T05:53:06.565Z,964.9
2017-03-22T05:54:15.637Z,964.86
2017-03-22T05:55:25.015Z,964.93
2017-03-22T05:56:33.774Z,964.91
2017-03-22T05:57:42.845Z,964.93
2017-03-22T05:58:52.765Z,964.91
2017-03-22T06:00:02.392Z,964.93
2017-03-22T06:01:11.773Z,964.92
2017-03-22T06:02:20.847Z,964.91
2017-03-22T06:03:29.614Z,964.9
2017-03-22T06:04:39.809Z,964.9
2017-03-22T06:05:48.876Z,964.91
2017-03-22T06:06:57.633Z,964.93
2017-03-22T06:08:06.694Z,964.96
2017-03-22T06:09:16.372Z,964.95
2017-03-22T06:10:26.353Z,964.94
2017-03-22T06:11:35.407Z,964.97
2017-03-22T06:12:44.203Z,964.91
2017-03-22T06:13:53.825Z,964.94
2017-03-22T06:15:02.593Z,964.93
2017-03-22T06:16:11.339Z,964.93
2017-03-22T06:17:20.589Z,964.98
2017-03-22T06:18:29.959Z,964.93
2017-03-22T06:19:39.029Z,964.95
2017-03-22T06:20:48.107Z,964.99
2017-03-22T06:21:57.174Z,964.94
2017-03-22T06:23:06.264Z,964.92
2017-03-22T06:24:15.635Z,964.96
2017-03-22T06:25:25.298Z,964.92
2017-03-22T06:26:34.304Z,964.93
2017-03-22T06:27:43.073Z,964.91
2017-03-22T06:28:52.450Z,964.9
2017-03-22T06:30:01.817Z,964.89
2017-03-22T06:31:10.582Z,964.88
2017-03-22T06:32:19.651Z,964.92
2017-03-22T06:33:29.628Z,964.89
2017-03-22T06:34:39.915Z,964.88
2017-03-22T06:35:48.892Z,964.89
2017-03-22T06:36:57.658Z,964.9
2017-03-22T06:38:06.729Z,964.9
2017-03-22T06:39:16.423Z,964.91
2017-03-22T06:40:26.717Z,964.9
2017-03-22T06:41:35.496Z,964.89
2017-03-22T06:42:44.261Z,964.91
2017-03-22T06:43:53.681Z,964.9
2017-03-22T06:45:02.762Z,964.91
2017-03-22T06:46:12.134Z,964.93
2017-03-22T06:47:21.500Z,964.93
2017-03-22T06:48:30.571Z,964.92
2017-03-22T06:49:40.247Z,964.92
2017-03-22T06:50:49.917Z,964.92
2017-03-22T06:51:58.615Z,964.92
2017-03-22T06:53:07.632Z,964.91
2017-03-22T06:54:16.988Z,964.93
2017-03-22T06:55:26.603Z,964.92
2017-03-22T06:56:35.306Z,964.97
2017-03-22T06:57:44.070Z,964.95
2017-03-22T06:58:53.451Z,964.98
2017-03-22T07:00:03.381Z,964.97
2017-03-22T07:01:13.057Z,964.99
2017-03-22T07:02:21.815Z,965.01
2017-03-22T07:03:31.183Z,965.02
2017-03-22T07:04:41.222Z,965.01
2017-03-22T07:05:50.291Z,965.07
2017-03-22T07:06:59.358Z,965.05
2017-03-22T07:08:08.435Z,965.06
2017-03-22T07:09:17.810Z,965.04
2017-03-22T07:10:26.893Z,965.01
2017-03-22T07:11:35.661Z,965.04
2017-03-22T07:12:44.736Z,965.05
2017-03-22T07:13:54.005Z,965.03
2017-03-22T07:15:03.694Z,965.03
2017-03-22T07:16:13.068Z,965.11
2017-03-22T07:17:22.465Z,965.13
2017-03-22T07:18:32.145Z,965.12
2017-03-22T07:19:42.128Z,965.18
2017-03-22T07:20:51.137Z,965.16
2017-03-22T07:21:59.889Z,965.17
2017-03-22T07:23:08.900Z,965.19
2017-03-22T07:24:18.784Z,965.16
2017-03-22T07:25:28.463Z,965.24
2017-03-22T07:26:37.823Z,965.23
2017-03-22T07:27:47.746Z,965.25
2017-03-22T07:28:57.128Z,965.27
2017-03-22T07:30:06.514Z,965.25
2017-03-22T07:31:15.879Z,965.25
2017-03-22T07:32:24.896Z,965.3
2017-03-22T07:33:33.659Z,965.27
2017-03-22T07:34:43.283Z,965.3
2017-03-22T07:35:53.270Z,965.31
2017-03-22T07:37:02.347Z,965.29
2017-03-22T07:38:11.400Z,965.33
2017-03-22T07:39:21.027Z,965.28
2017-03-22T07:40:30.712Z,965.31
2017-03-22T07:41:40.398Z,965.35
2017-03-22T07:42:49.470Z,965.34
2017-03-22T07:43:59.105Z,965.3
2017-03-22T07:45:08.479Z,965.37
2017-03-22T07:46:17.222Z,965.32
2017-03-22T07:47:26.552Z,965.31
2017-03-22T07:48:35.933Z,965.31
2017-03-22T07:49:45.051Z,965.36
2017-03-22T07:50:54.393Z,965.34
2017-03-22T07:52:03.465Z,965.35
2017-03-22T07:53:12.485Z,965.4
2017-03-22T07:54:22.103Z,965.39
2017-03-22T07:55:31.419Z,965.41
2017-03-22T07:56:40.174Z,965.41
2017-03-22T07:57:48.894Z,965.36
2017-03-22T07:58:58.511Z,965.44
2017-03-22T08:00:08.438Z,965.5
2017-03-22T08:01:17.806Z,965.48
2017-03-22T08:02:26.564Z,965.46
2017-03-22T08:03:35.642Z,965.47
2017-03-22T08:04:45.018Z,965.47
2017-03-22T08:05:54.402Z,965.5
2017-03-22T08:07:03.154Z,965.44
2017-03-22T08:08:12.456Z,965.46
2017-03-22T08:09:22.081Z,965.47
2017-03-22T08:10:30.862Z,965.43
2017-03-22T08:11:39.932Z,965.49
2017-03-22T08:12:49.320Z,965.43
2017-03-22T08:13:58.992Z,965.45
2017-03-22T08:15:08.303Z,965.47
2017-03-22T08:16:17.310Z,965.46
2017-03-22T08:17:26.326Z,965.46
2017-03-22T08:18:36.009Z,965.46
2017-03-22T08:19:45.695Z,965.51
2017-03-22T08:20:55.338Z,965.5
2017-03-22T08:22:04.114Z,965.53
2017-03-22T08:23:13.392Z,965.56
2017-03-22T08:24:23.075Z,965.56
2017-03-22T08:25:32.446Z,965.49
2017-03-22T08:26:41.219Z,965.56
2017-03-22T08:27:50.221Z,965.51
2017-03-22T08:29:01.006Z,965.57
2017-03-22T08:30:10.371Z,965.56
2017-03-22T08:31:19.688Z,965.59
2017-03-22T08:32:28.445Z,965.6
2017-03-22T08:33:37.398Z,965.6
2017-03-22T08:34:46.777Z,965.64
2017-03-22T08:35:55.851Z,965.65
2017-03-22T08:37:04.629Z,965.65
2017-03-22T08:38:13.994Z,965.71
2017-03-22T08:39:23.200Z,965.67
2017-03-22T08:40:32.873Z,965.67
2017-03-22T08:41:41.648Z,965.69
2017-03-22T08:42:50.667Z,965.66
2017-03-22T08:43:59.375Z,965.67
2017-03-22T08:45:08.926Z,965.7
2017-03-22T08:46:17.937Z,965.65
2017-03-22T08:47:27.083Z,965.68
2017-03-22T08:48:36.153Z,965.67
2017-03-22T08:49:45.531Z,965.64
2017-03-22T08:50:55.261Z,965.66
2017-03-22T08:52:04.022Z,965.62
2017-03-22T08:53:13.101Z,965.69
2017-03-22T08:54:22.164Z,965.64
2017-03-22T08:55:31.486Z,965.7
2017-03-22T08:56:40.665Z,965.73
2017-03-22T08:57:49.426Z,965.68
2017-03-22T08:58:59.097Z,965.71
2017-03-22T09:00:08.472Z,965.74
2017-03-22T09:01:17.230Z,965.75
2017-03-22T09:02:26.241Z,965.77
2017-03-22T09:03:35.008Z,965.77
2017-03-22T09:04:44.991Z,965.78
2017-03-22T09:05:54.064Z,965.83
2017-03-22T09:07:03.153Z,965.79
2017-03-22T09:08:12.531Z,965.78
2017-03-22T09:09:21.311Z,965.75
2017-03-22T09:10:30.034Z,965.79
2017-03-22T09:11:38.810Z,965.74
2017-03-22T09:12:47.875Z,965.71
2017-03-22T09:13:56.927Z,965.67
2017-03-22T09:15:05.628Z,965.74
2017-03-22T09:16:15.248Z,965.73
2017-03-22T09:17:24.017Z,965.72
2017-03-22T09:18:32.774Z,965.83
2017-03-22T09:19:41.485Z,965.79
2017-03-22T09:20:50.252Z,965.8
2017-03-22T09:21:59.219Z,965.85
2017-03-22T09:23:08.297Z,965.86
2017-03-22T09:24:17.060Z,965.85
2017-03-22T09:25:26.064Z,965.87
2017-03-22T09:26:35.422Z,965.88
2017-03-22T09:27:44.490Z,965.86
2017-03-22T09:28:53.273Z,965.85
2017-03-22T09:30:02.358Z,965.89
2017-03-22T09:31:11.062Z,965.88
2017-03-22T09:32:19.830Z,965.84
2017-03-22T09:33:28.803Z,965.83
2017-03-22T09:34:37.875Z,965.86
2017-03-22T09:35:46.938Z,965.87
2017-03-22T09:36:56.026Z,965.88
2017-03-22T09:38:04.734Z,965.86
2017-03-22T09:39:13.498Z,965.87
2017-03-22T09:40:22.254Z,965.83
2017-03-22T09:41:31.332Z,965.86
2017-03-22T09:42:40.121Z,965.87
2017-03-22T09:43:48.870Z,965.87
2017-03-22T09:44:57.631Z,965.91
2017-03-22T09:46:06.422Z,965.84
2017-03-22T09:47:15.174Z,965.93
2017-03-22T09:48:23.882Z,965.88
2017-03-22T09:49:32.653Z,965.87
2017-03-22T09:50:41.437Z,965.87
2017-03-22T09:51:50.511Z,965.92
2017-03-22T09:52:59.257Z,965.99
2017-03-22T09:54:08.264Z,965.95
2017-03-22T09:55:17.033Z,965.94
2017-03-22T09:56:25.792Z,965.88
2017-03-22T09:57:34.814Z,965.93
2017-03-22T09:58:43.526Z,965.97
2017-03-22T09:59:52.532Z,965.97
2017-03-22T10:01:01.304Z,965.89
2017-03-22T10:02:10.023Z,965.87
2017-03-22T10:03:18.786Z,965.89
2017-03-22T10:04:27.551Z,965.91
2017-03-22T10:05:36.619Z,965.95
2017-03-22T10:06:45.390Z,965.86
2017-03-22T10:07:54.159Z,965.99
2017-03-22T10:09:03.230Z,965.88
2017-03-22T10:10:12.300Z,965.82
2017-03-22T10:11:21.679Z,965.85
2017-03-22T10:12:30.439Z,965.82
2017-03-22T10:13:39.509Z,965.82
2017-03-22T10:14:48.266Z,965.89
2017-03-22T10:15:56.974Z,965.83
2017-03-22T10:17:05.730Z,965.82
2017-03-22T10:18:14.440Z,965.86
2017-03-22T10:19:23.515Z,965.86
2017-03-22T10:20:32.581Z,965.84
2017-03-22T10:21:41.355Z,965.84
2017-03-22T10:22:50.153Z,965.82
2017-03-22T10:23:58.920Z,965.81
2017-03-22T10:25:07.690Z,965.8
2017-03-22T10:26:16.457Z,965.83
2017-03-22T10:27:26.272Z,965.83
2017-03-22T10:28:35.037Z,965.84
2017-03-22T10:29:43.803Z,965.82
2017-03-22T10:30:52.864Z,965.85
2017-03-22T10:32:01.873Z,965.78
2017-03-22T10:33:10.934Z,965.85
2017-03-22T10:34:19.642Z,965.84
2017-03-22T10:35:28.407Z,965.81
2017-03-22T10:36:37.182Z,965.78
2017-03-22T10:37:45.956Z,965.82
2017-03-22T10:38:55.027Z,965.89
2017-03-22T10:40:03.789Z,965.87
2017-03-22T10:41:12.557Z,965.82
2017-03-22T10:42:21.370Z,965.81
2017-03-22T10:43:30.128Z,965.8
2017-03-22T10:44:38.884Z,965.85
2017-03-22T10:45:47.600Z,965.9
2017-03-22T10:46:56.371Z,965.88
2017-03-22T10:48:05.135Z,965.89
2017-03-22T10:49:13.903Z,965.86
2017-03-22T10:50:23.264Z,965.91
2017-03-22T10:51:31.974Z,965.88
2017-03-22T10:52:41.081Z,965.89
2017-03-22T10:53:49.783Z,965.87
2017-03-22T10:54:58.537Z,965.85
2017-03-22T10:56:07.306Z,965.84
2017-03-22T10:57:16.375Z,965.9
2017-03-22T10:58:25.142Z,965.84
2017-03-22T10:59:33.904Z,965.89
2017-03-22T11:00:42.659Z,965.88
2017-03-22T11:01:51.714Z,965.89
2017-03-22T11:03:00.728Z,965.91
2017-03-22T11:04:09.794Z,965.96
2017-03-22T11:05:18.861Z,965.88
2017-03-22T11:06:27.936Z,965.86
2017-03-22T11:07:36.741Z,965.94
2017-03-22T11:08:45.486Z,965.95
2017-03-22T11:09:54.499Z,965.9
2017-03-22T11:11:03.260Z,965.91
2017-03-22T11:12:12.016Z,965.85
2017-03-22T11:13:21.064Z,965.87
2017-03-22T11:14:30.077Z,965.85
2017-03-22T11:15:38.843Z,965.81
2017-03-22T11:16:48.216Z,965.83
2017-03-22T11:17:56.963Z,965.79
2017-03-22T11:19:05.673Z,965.78
2017-03-22T11:20:14.437Z,965.75
2017-03-22T11:21:23.185Z,965.69
2017-03-22T11:22:31.895Z,965.75
2017-03-22T11:23:40.653Z,965.79
2017-03-22T11:24:49.710Z,965.74
2017-03-22T11:25:58.713Z,965.72
2017-03-22T11:27:07.790Z,965.74
2017-03-22T11:28:16.860Z,965.77
2017-03-22T11:29:25.626Z,965.79
2017-03-22T11:30:34.595Z,965.84
2017-03-22T11:31:43.671Z,965.79
2017-03-22T11:32:52.748Z,965.77
2017-03-22T11:34:01.513Z,965.76
2017-03-22T11:35:10.578Z,965.75
2017-03-22T11:36:19.949Z,965.73
2017-03-22T11:37:28.714Z,965.78
2017-03-22T11:38:37.783Z,965.79
2017-03-22T11:39:46.554Z,965.74
2017-03-22T11:40:55.625Z,965.72
2017-03-22T11:42:04.895Z,965.71
2017-03-22T11:43:13.948Z,965.69
2017-03-22T11:44:22.955Z,965.69
2017-03-22T11:45:31.714Z,965.7
2017-03-22T11:46:40.779Z,965.75
2017-03-22T11:47:49.781Z,965.78
2017-03-22T11:48:59.098Z,965.72
2017-03-22T11:50:07.889Z,965.69
2017-03-22T11:51:16.596Z,965.68
2017-03-22T11:52:25.535Z,965.62
2017-03-22T11:53:34.592Z,965.63
2017-03-22T11:54:43.348Z,965.67
2017-03-22T11:55:52.111Z,965.64
2017-03-22T11:57:01.160Z,965.74
2017-03-22T11:58:10.086Z,965.74
2017-03-22T11:59:19.156Z,965.71
2017-03-22T12:00:27.915Z,965.68
2017-03-22T12:01:36.684Z,965.62
2017-03-22T12:02:45.756Z,965.66
2017-03-22T12:03:55.030Z,965.71
2017-03-22T12:05:04.099Z,965.64
2017-03-22T12:06:12.863Z,965.66
2017-03-22T12:07:21.935Z,965.63
2017-03-22T12:08:30.698Z,965.62
2017-03-22T12:09:39.617Z,965.59
2017-03-22T12:10:48.380Z,965.56
2017-03-22T12:11:57.136Z,965.56
2017-03-22T12:13:05.902Z,965.53
2017-03-22T12:14:14.967Z,965.49
2017-03-22T12:15:23.736Z,965.45
2017-03-22T12:16:32.798Z,965.47
2017-03-22T12:17:41.563Z,965.49
2017-03-22T12:18:50.320Z,965.51
2017-03-22T12:19:59.282Z,965.49
2017-03-22T12:21:08.344Z,965.5
2017-03-22T12:22:17.052Z,965.45
2017-03-22T12:23:25.837Z,965.47
2017-03-22T12:24:34.600Z,965.49
2017-03-22T12:25:43.666Z,965.47
2017-03-22T12:26:52.733Z,965.49
2017-03-22T12:28:01.795Z,965.42
2017-03-22T12:29:10.559Z,965.48
2017-03-22T12:30:19.314Z,965.46
2017-03-22T12:31:28.387Z,965.48
2017-03-22T12:32:37.157Z,965.45
2017-03-22T12:33:46.525Z,965.47
2017-03-22T12:34:55.291Z,965.48
2017-03-22T12:36:04.064Z,965.45
2017-03-22T12:37:13.128Z,965.48
2017-03-22T12:38:22.197Z,965.46
2017-03-22T12:39:31.253Z,965.47
2017-03-22T12:40:40.268Z,965.48
2017-03-22T12:41:49.650Z,965.51
2017-03-22T12:42:58.398Z,965.46
2017-03-22T12:44:07.110Z,965.46
2017-03-22T12:45:16.477Z,965.4
2017-03-22T12:46:25.249Z,965.43
2017-03-22T12:47:34.023Z,965.39
2017-03-22T12:48:42.784Z,965.42
2017-03-22T12:49:51.791Z,965.44
2017-03-22T12:51:01.161Z,965.42
2017-03-22T12:52:09.936Z,965.45
2017-03-22T12:53:18.699Z,965.43
2017-03-22T12:54:27.464Z,965.4
2017-03-22T12:55:36.549Z,965.41
2017-03-22T12:56:45.605Z,965.38
2017-03-22T12:57:54.310Z,965.35
2017-03-22T12:59:03.069Z,965.32
2017-03-22T13:00:12.343Z,965.3
2017-03-22T13:01:21.094Z,965.31
2017-03-22T13:02:30.178Z,965.27
2017-03-22T13:03:39.258Z,965.27
2017-03-22T13:04:48.005Z,965.23
2017-03-22T13:05:57.034Z,965.21
2017-03-22T13:07:06.103Z,965.23
2017-03-22T13:08:15.376Z,965.2
2017-03-22T13:09:24.240Z,965.2
2017-03-22T13:10:32.991Z,965.2
2017-03-22T13:11:42.006Z,965.22
2017-03-22T13:12:50.776Z,965.16
2017-03-22T13:13:59.585Z,965.21
2017-03-22T13:15:08.348Z,965.17
2017-03-22T13:16:17.122Z,965.14
2017-03-22T13:17:26.489Z,965.13
2017-03-22T13:18:36.466Z,965.08
2017-03-22T13:19:46.149Z,965.11
2017-03-22T13:20:54.911Z,965.08
2017-03-22T13:22:03.666Z,965.07
2017-03-22T13:23:12.384Z,965.09
2017-03-22T13:24:21.458Z,965.09
2017-03-22T13:25:30.826Z,965.05
2017-03-22T13:26:40.200Z,965.05
2017-03-22T13:27:49.573Z,965.04
2017-03-22T13:28:58.637Z,965.02
2017-03-22T13:30:07.402Z,965.05
2017-03-22T13:31:16.177Z,965.01
2017-03-22T13:32:25.544Z,964.98
2017-03-22T13:33:34.911Z,964.97
2017-03-22T13:34:44.287Z,964.96
2017-03-22T13:35:53.347Z,964.94
2017-03-22T13:37:02.363Z,964.94
2017-03-22T13:38:11.428Z,964.94
2017-03-22T13:39:20.201Z,964.94
2017-03-22T13:40:29.271Z,964.9
2017-03-22T13:41:38.350Z,964.87
2017-03-22T13:42:47.419Z,964.86
2017-03-22T13:43:56.469Z,964.85
2017-03-22T13:45:05.182Z,964.85
2017-03-22T13:46:14.492Z,964.82
2017-03-22T13:47:23.847Z,964.85
2017-03-22T13:48:33.161Z,964.79
2017-03-22T13:49:41.919Z,964.8
2017-03-22T13:50:50.638Z,964.76
2017-03-22T13:51:59.702Z,964.79
2017-03-22T13:53:08.447Z,964.77
2017-03-22T13:54:17.175Z,964.78
2017-03-22T13:55:25.919Z,964.73
2017-03-22T13:56:34.624Z,964.73
2017-03-22T13:57:43.490Z,964.75
2017-03-22T13:58:52.258Z,964.74
2017-03-22T14:00:01.029Z,964.73
2017-03-22T14:01:09.800Z,964.7
2017-03-22T14:02:18.864Z,964.68
2017-03-22T14:03:28.180Z,964.68
2017-03-22T14:04:36.946Z,964.65
2017-03-22T14:05:46.001Z,964.69
2017-03-22T14:06:55.012Z,964.66
2017-03-22T14:08:04.379Z,964.7
2017-03-22T14:09:13.324Z,964.68
2017-03-22T14:10:22.080Z,964.7
2017-03-22T14:11:30.844Z,964.67
2017-03-22T14:12:39.641Z,964.7
2017-03-22T14:13:48.403Z,964.64
2017-03-22T14:14:57.779Z,964.65
2017-03-22T14:16:06.846Z,964.63
2017-03-22T14:17:15.591Z,964.61
2017-03-22T14:18:24.298Z,964.62
2017-03-22T14:19:33.059Z,964.59
2017-03-22T14:20:41.830Z,964.62
2017-03-22T14:21:50.898Z,964.61
2017-03-22T14:22:59.662Z,964.67
2017-03-22T14:24:08.424Z,964.6
2017-03-22T14:25:17.184Z,964.65
2017-03-22T14:26:25.954Z,964.61
2017-03-22T14:27:35.322Z,964.65